sensor_id;sensor_type;location;lat;lon;timestamp;pressure;altitude;pressure_sealevel;temperature;humidity
9439;BME280;5176;42.622;25.386;2023-02-02T00:00:27;97140.47;;;3.33;76.95
9439;BME280;5176;42.622;25.386;2023-02-02T00:02:56;97141.28;;;3.35;77.00
9439;BME280;5176;42.622;25.386;2023-02-02T00:05:23;97143.69;;;3.39;77.79
9439;BME280;5176;42.622;25.386;2023-02-02T00:07:50;97143.53;;;3.44;78.21
9439;BME280;5176;42.622;25.386;2023-02-02T00:10:17;97141.84;;;3.43;78.39
9439;BME280;5176;42.622;25.386;2023-02-02T00:12:45;97143.59;;;3.42;77.27
9439;BME280;5176;42.622;25.386;2023-02-02T00:15:12;97147.91;;;3.42;77.90
9439;BME280;5176;42.622;25.386;2023-02-02T00:17:39;97159.06;;;3.44;76.70
9439;BME280;5176;42.622;25.386;2023-02-02T00:20:08;97155.63;;;3.43;76.52
9439;BME280;5176;42.622;25.386;2023-02-02T00:22:35;97148.69;;;3.44;76.30
9439;BME280;5176;42.622;25.386;2023-02-02T00:25:03;97144.19;;;3.49;77.17
9439;BME280;5176;42.622;25.386;2023-02-02T00:27:30;97153.38;;;3.58;76.52
9439;BME280;5176;42.622;25.386;2023-02-02T00:29:57;97156.97;;;3.53;76.55
9439;BME280;5176;42.622;25.386;2023-02-02T00:32:24;97147.03;;;3.43;76.22
9439;BME280;5176;42.622;25.386;2023-02-02T00:34:52;97151.13;;;3.48;76.05
9439;BME280;5176;42.622;25.386;2023-02-02T00:37:20;97151.06;;;3.50;75.03
9439;BME280;5176;42.622;25.386;2023-02-02T00:39:47;97157.59;;;3.60;73.40
9439;BME280;5176;42.622;25.386;2023-02-02T00:42:14;97154.84;;;3.65;71.68
9439;BME280;5176;42.622;25.386;2023-02-02T00:44:41;97149.13;;;3.78;70.54
9439;BME280;5176;42.622;25.386;2023-02-02T00:47:29;97165.19;;;3.88;69.34
9439;BME280;5176;42.622;25.386;2023-02-02T00:49:56;97176.03;;;3.98;69.46
9439;BME280;5176;42.622;25.386;2023-02-02T00:52:24;97161.25;;;4.00;70.21
9439;BME280;5176;42.622;25.386;2023-02-02T00:54:51;97167.28;;;4.00;70.55
9439;BME280;5176;42.622;25.386;2023-02-02T00:57:18;97179.84;;;3.89;70.09
9439;BME280;5176;42.622;25.386;2023-02-02T00:59:46;97181.22;;;3.98;70.46
9439;BME280;5176;42.622;25.386;2023-02-02T01:02:13;97171.81;;;3.95;69.30
9439;BME280;5176;42.622;25.386;2023-02-02T01:04:40;97180.88;;;4.07;72.42
9439;BME280;5176;42.622;25.386;2023-02-02T01:07:07;97177.25;;;4.33;79.20
9439;BME280;5176;42.622;25.386;2023-02-02T01:09:36;97169.09;;;4.42;81.26
9439;BME280;5176;42.622;25.386;2023-02-02T01:12:03;97141.09;;;4.50;80.82
9439;BME280;5176;42.622;25.386;2023-02-02T01:14:30;97154.66;;;4.57;81.03
9439;BME280;5176;42.622;25.386;2023-02-02T01:16:57;97172.75;;;4.58;79.82
9439;BME280;5176;42.622;25.386;2023-02-02T01:19:24;97165.56;;;4.65;78.82
9439;BME280;5176;42.622;25.386;2023-02-02T01:21:52;97158.53;;;4.67;79.29
9439;BME280;5176;42.622;25.386;2023-02-02T01:24:19;97134.28;;;4.68;79.99
9439;BME280;5176;42.622;25.386;2023-02-02T01:26:47;97148.97;;;4.69;79.73
9439;BME280;5176;42.622;25.386;2023-02-02T01:29:14;97144.19;;;4.58;78.89
9439;BME280;5176;42.622;25.386;2023-02-02T01:31:42;97144.69;;;4.46;77.93
9439;BME280;5176;42.622;25.386;2023-02-02T01:34:09;97123.59;;;4.33;78.89
9439;BME280;5176;42.622;25.386;2023-02-02T01:36:36;97139.22;;;4.32;79.79
9439;BME280;5176;42.622;25.386;2023-02-02T01:39:03;97138.06;;;4.39;79.44
9439;BME280;5176;42.622;25.386;2023-02-02T01:41:30;97156.25;;;4.39;78.35
9439;BME280;5176;42.622;25.386;2023-02-02T01:44:01;97143.44;;;4.34;77.36
9439;BME280;5176;42.622;25.386;2023-02-02T01:46:29;97158.97;;;4.36;76.68
9439;BME280;5176;42.622;25.386;2023-02-02T01:49:04;97144.09;;;4.40;75.92
9439;BME280;5176;42.622;25.386;2023-02-02T01:51:37;97130.53;;;4.33;77.21
9439;BME280;5176;42.622;25.386;2023-02-02T01:54:08;97135.97;;;4.27;77.27
9439;BME280;5176;42.622;25.386;2023-02-02T01:56:41;97122.28;;;4.23;78.87
9439;BME280;5176;42.622;25.386;2023-02-02T01:59:13;97113.97;;;4.15;79.92
9439;BME280;5176;42.622;25.386;2023-02-02T02:01:41;97118.06;;;4.21;80.34
9439;BME280;5176;42.622;25.386;2023-02-02T02:04:09;97118.00;;;4.22;80.98
9439;BME280;5176;42.622;25.386;2023-02-02T02:06:37;97123.13;;;4.24;81.96
9439;BME280;5176;42.622;25.386;2023-02-02T02:09:07;97128.19;;;4.27;82.85
9439;BME280;5176;42.622;25.386;2023-02-02T02:11:34;97140.28;;;4.06;82.81
9439;BME280;5176;42.622;25.386;2023-02-02T02:14:05;97146.06;;;3.91;84.04
9439;BME280;5176;42.622;25.386;2023-02-02T02:17:07;97124.94;;;4.00;84.96
9439;BME280;5176;42.622;25.386;2023-02-02T02:20:04;97141.84;;;4.10;85.04
9439;BME280;5176;42.622;25.386;2023-02-02T02:26:23;97121.50;;;3.99;84.16
9439;BME280;5176;42.622;25.386;2023-02-02T02:29:25;97118.56;;;4.08;84.15
9439;BME280;5176;42.622;25.386;2023-02-02T02:32:24;97115.13;;;4.08;84.20
9439;BME280;5176;42.622;25.386;2023-02-02T02:34:58;97121.09;;;4.10;84.96
9439;BME280;5176;42.622;25.386;2023-02-02T02:37:32;97132.06;;;4.17;84.79
9439;BME280;5176;42.622;25.386;2023-02-02T02:40:07;97122.22;;;4.25;85.35
9439;BME280;5176;42.622;25.386;2023-02-02T02:42:40;97113.34;;;4.30;85.37
9439;BME280;5176;42.622;25.386;2023-02-02T02:45:10;97112.88;;;4.21;84.64
9439;BME280;5176;42.622;25.386;2023-02-02T02:47:40;97113.78;;;4.20;84.46
9439;BME280;5176;42.622;25.386;2023-02-02T02:50:09;97106.06;;;4.18;84.72
9439;BME280;5176;42.622;25.386;2023-02-02T02:52:37;97106.31;;;4.12;84.76
9439;BME280;5176;42.622;25.386;2023-02-02T02:55:06;97105.41;;;3.91;85.61
9439;BME280;5176;42.622;25.386;2023-02-02T02:57:46;97100.47;;;3.85;86.58
9439;BME280;5176;42.622;25.386;2023-02-02T03:00:28;97105.16;;;3.97;87.12
9439;BME280;5176;42.622;25.386;2023-02-02T03:03:06;97105.88;;;4.01;86.80
9439;BME280;5176;42.622;25.386;2023-02-02T03:05:42;97102.50;;;3.99;87.19
9439;BME280;5176;42.622;25.386;2023-02-02T03:08:19;97111.19;;;3.98;87.20
9439;BME280;5176;42.622;25.386;2023-02-02T03:10:49;97107.03;;;3.94;87.29
9439;BME280;5176;42.622;25.386;2023-02-02T03:13:17;97093.59;;;3.84;87.15
9439;BME280;5176;42.622;25.386;2023-02-02T03:15:45;97090.09;;;3.85;87.34
9439;BME280;5176;42.622;25.386;2023-02-02T03:18:16;97093.41;;;3.89;87.36
9439;BME280;5176;42.622;25.386;2023-02-02T03:20:45;97097.50;;;3.94;86.81
9439;BME280;5176;42.622;25.386;2023-02-02T03:23:12;97108.31;;;3.83;86.68
9439;BME280;5176;42.622;25.386;2023-02-02T03:25:39;97098.53;;;3.90;87.33
9439;BME280;5176;42.622;25.386;2023-02-02T03:28:07;97096.31;;;4.03;87.43
9439;BME280;5176;42.622;25.386;2023-02-02T03:30:35;97094.31;;;4.09;86.78
9439;BME280;5176;42.622;25.386;2023-02-02T03:33:03;97108.19;;;4.08;85.11
9439;BME280;5176;42.622;25.386;2023-02-02T03:35:32;97107.47;;;4.05;84.51
9439;BME280;5176;42.622;25.386;2023-02-02T03:37:59;97098.66;;;4.09;85.17
9439;BME280;5176;42.622;25.386;2023-02-02T03:40:27;97091.06;;;4.04;85.62
9439;BME280;5176;42.622;25.386;2023-02-02T03:42:54;97098.38;;;3.95;84.58
9439;BME280;5176;42.622;25.386;2023-02-02T03:45:21;97097.25;;;4.00;83.50
9439;BME280;5176;42.622;25.386;2023-02-02T03:47:49;97112.19;;;3.95;84.27
9439;BME280;5176;42.622;25.386;2023-02-02T03:50:16;97101.84;;;3.94;83.61
9439;BME280;5176;42.622;25.386;2023-02-02T03:52:45;97110.84;;;3.85;83.67
9439;BME280;5176;42.622;25.386;2023-02-02T03:55:12;97110.00;;;3.85;84.27
9439;BME280;5176;42.622;25.386;2023-02-02T03:57:39;97108.31;;;3.83;84.78
9439;BME280;5176;42.622;25.386;2023-02-02T04:00:07;97126.56;;;3.80;84.07
9439;BME280;5176;42.622;25.386;2023-02-02T04:02:34;97107.94;;;3.71;83.39
9439;BME280;5176;42.622;25.386;2023-02-02T04:05:02;97098.94;;;3.79;81.97
9439;BME280;5176;42.622;25.386;2023-02-02T04:07:29;97117.03;;;3.81;82.42
9439;BME280;5176;42.622;25.386;2023-02-02T04:09:57;97105.72;;;3.83;81.67
9439;BME280;5176;42.622;25.386;2023-02-02T04:12:24;97097.88;;;3.85;81.45
9439;BME280;5176;42.622;25.386;2023-02-02T04:14:51;97104.28;;;3.76;81.89
9439;BME280;5176;42.622;25.386;2023-02-02T04:17:18;97104.88;;;3.83;81.11
9439;BME280;5176;42.622;25.386;2023-02-02T04:19:46;97096.78;;;3.91;81.37
9439;BME280;5176;42.622;25.386;2023-02-02T04:22:13;97100.09;;;3.94;81.68
9439;BME280;5176;42.622;25.386;2023-02-02T04:24:40;97094.31;;;3.88;82.00
9439;BME280;5176;42.622;25.386;2023-02-02T04:27:08;97106.56;;;3.84;82.65
9439;BME280;5176;42.622;25.386;2023-02-02T04:29:35;97109.69;;;3.70;81.14
9439;BME280;5176;42.622;25.386;2023-02-02T04:32:03;97120.13;;;3.69;82.52
9439;BME280;5176;42.622;25.386;2023-02-02T04:34:30;97117.47;;;3.70;83.47
9439;BME280;5176;42.622;25.386;2023-02-02T04:36:57;97120.28;;;3.64;81.99
9439;BME280;5176;42.622;25.386;2023-02-02T04:39:25;97116.72;;;3.67;83.29
9439;BME280;5176;42.622;25.386;2023-02-02T04:41:52;97115.25;;;3.61;83.63
9439;BME280;5176;42.622;25.386;2023-02-02T04:44:20;97108.16;;;3.65;83.27
9439;BME280;5176;42.622;25.386;2023-02-02T04:46:47;97119.50;;;3.62;82.46
9439;BME280;5176;42.622;25.386;2023-02-02T04:49:15;97123.19;;;3.57;82.87
9439;BME280;5176;42.622;25.386;2023-02-02T04:51:42;97113.66;;;3.57;82.44
9439;BME280;5176;42.622;25.386;2023-02-02T04:54:09;97118.91;;;3.55;81.18
9439;BME280;5176;42.622;25.386;2023-02-02T04:56:36;97123.28;;;3.53;81.08
9439;BME280;5176;42.622;25.386;2023-02-02T04:59:03;97100.75;;;3.32;80.80
9439;BME280;5176;42.622;25.386;2023-02-02T05:01:31;97118.56;;;3.41;80.60
9439;BME280;5176;42.622;25.386;2023-02-02T05:03:59;97121.16;;;3.41;81.29
9439;BME280;5176;42.622;25.386;2023-02-02T05:06:26;97127.84;;;3.47;81.39
9439;BME280;5176;42.622;25.386;2023-02-02T05:08:53;97141.63;;;3.47;80.40
9439;BME280;5176;42.622;25.386;2023-02-02T05:11:21;97145.34;;;3.42;80.22
9439;BME280;5176;42.622;25.386;2023-02-02T05:13:50;97131.78;;;3.34;80.99
9439;BME280;5176;42.622;25.386;2023-02-02T05:16:17;97131.13;;;3.28;79.15
9439;BME280;5176;42.622;25.386;2023-02-02T05:18:49;97141.31;;;3.33;79.49
9439;BME280;5176;42.622;25.386;2023-02-02T05:21:16;97130.31;;;3.26;79.80
9439;BME280;5176;42.622;25.386;2023-02-02T05:23:44;97132.13;;;3.24;79.63
9439;BME280;5176;42.622;25.386;2023-02-02T05:26:14;97136.31;;;3.28;79.14
9439;BME280;5176;42.622;25.386;2023-02-02T05:28:42;97132.97;;;3.25;79.88
9439;BME280;5176;42.622;25.386;2023-02-02T05:31:09;97126.69;;;3.07;80.55
9439;BME280;5176;42.622;25.386;2023-02-02T05:33:36;97140.69;;;3.03;78.54
9439;BME280;5176;42.622;25.386;2023-02-02T05:36:06;97137.94;;;3.08;77.23
9439;BME280;5176;42.622;25.386;2023-02-02T05:38:34;97140.47;;;3.09;77.68
9439;BME280;5176;42.622;25.386;2023-02-02T05:41:01;97142.16;;;3.10;78.01
9439;BME280;5176;42.622;25.386;2023-02-02T05:43:29;97135.34;;;3.08;77.55
9439;BME280;5176;42.622;25.386;2023-02-02T05:45:57;97140.78;;;3.00;72.08
9439;BME280;5176;42.622;25.386;2023-02-02T05:48:24;97135.66;;;2.98;71.28
9439;BME280;5176;42.622;25.386;2023-02-02T05:50:57;97156.09;;;3.06;72.56
9439;BME280;5176;42.622;25.386;2023-02-02T05:53:28;97150.75;;;3.11;70.50
9439;BME280;5176;42.622;25.386;2023-02-02T05:55:55;97164.81;;;3.28;69.67
9439;BME280;5176;42.622;25.386;2023-02-02T05:58:22;97162.56;;;3.43;69.11
9439;BME280;5176;42.622;25.386;2023-02-02T06:00:50;97163.88;;;3.54;69.30
9439;BME280;5176;42.622;25.386;2023-02-02T06:03:17;97173.09;;;3.62;70.36
9439;BME280;5176;42.622;25.386;2023-02-02T06:05:45;97173.81;;;3.65;71.17
9439;BME280;5176;42.622;25.386;2023-02-02T06:08:12;97179.69;;;3.70;68.37
9439;BME280;5176;42.622;25.386;2023-02-02T06:10:41;97178.84;;;3.70;66.58
9439;BME280;5176;42.622;25.386;2023-02-02T06:13:08;97166.50;;;3.76;66.20
9439;BME280;5176;42.622;25.386;2023-02-02T06:15:35;97176.88;;;3.98;65.15
9439;BME280;5176;42.622;25.386;2023-02-02T06:18:03;97171.69;;;4.20;63.35
9439;BME280;5176;42.622;25.386;2023-02-02T06:20:32;97182.13;;;4.41;62.87
9439;BME280;5176;42.622;25.386;2023-02-02T06:23:00;97191.19;;;4.52;60.63
9439;BME280;5176;42.622;25.386;2023-02-02T06:25:27;97169.25;;;4.59;59.67
9439;BME280;5176;42.622;25.386;2023-02-02T06:27:56;97189.59;;;4.90;59.02
9439;BME280;5176;42.622;25.386;2023-02-02T06:30:24;97192.41;;;5.06;58.49
9439;BME280;5176;42.622;25.386;2023-02-02T06:32:52;97200.41;;;5.22;57.93
9439;BME280;5176;42.622;25.386;2023-02-02T06:35:20;97203.16;;;5.38;58.41
9439;BME280;5176;42.622;25.386;2023-02-02T06:37:47;97165.88;;;5.18;58.14
9439;BME280;5176;42.622;25.386;2023-02-02T06:40:14;97191.59;;;5.45;58.43
9439;BME280;5176;42.622;25.386;2023-02-02T06:42:41;97186.88;;;5.53;56.36
9439;BME280;5176;42.622;25.386;2023-02-02T06:45:10;97184.72;;;5.63;53.41
9439;BME280;5176;42.622;25.386;2023-02-02T06:47:37;97182.91;;;5.84;53.73
9439;BME280;5176;42.622;25.386;2023-02-02T06:50:05;97177.09;;;5.97;53.79
9439;BME280;5176;42.622;25.386;2023-02-02T06:52:33;97165.00;;;6.15;53.79
9439;BME280;5176;42.622;25.386;2023-02-02T06:55:00;97176.06;;;6.38;52.75
9439;BME280;5176;42.622;25.386;2023-02-02T06:57:27;97173.72;;;6.68;51.03
9439;BME280;5176;42.622;25.386;2023-02-02T06:59:54;97189.38;;;6.85;51.50
9439;BME280;5176;42.622;25.386;2023-02-02T07:02:23;97193.28;;;7.11;50.78
9439;BME280;5176;42.622;25.386;2023-02-02T07:04:50;97192.28;;;7.31;49.82
9439;BME280;5176;42.622;25.386;2023-02-02T07:07:17;97191.66;;;7.43;49.62
9439;BME280;5176;42.622;25.386;2023-02-02T07:09:44;97190.44;;;7.49;49.68
9439;BME280;5176;42.622;25.386;2023-02-02T07:12:11;97190.97;;;7.55;49.14
9439;BME280;5176;42.622;25.386;2023-02-02T07:14:38;97181.16;;;7.60;47.69
9439;BME280;5176;42.622;25.386;2023-02-02T07:17:06;97185.63;;;7.74;47.81
9439;BME280;5176;42.622;25.386;2023-02-02T07:19:34;97192.06;;;7.84;49.13
9439;BME280;5176;42.622;25.386;2023-02-02T07:22:01;97193.91;;;7.82;47.78
9439;BME280;5176;42.622;25.386;2023-02-02T07:24:29;97197.13;;;8.03;48.22
9439;BME280;5176;42.622;25.386;2023-02-02T07:26:57;97210.88;;;8.23;47.37
9439;BME280;5176;42.622;25.386;2023-02-02T07:29:24;97203.72;;;8.26;46.44
9439;BME280;5176;42.622;25.386;2023-02-02T07:31:51;97194.19;;;8.41;47.29
9439;BME280;5176;42.622;25.386;2023-02-02T07:34:18;97204.38;;;8.77;48.63
9439;BME280;5176;42.622;25.386;2023-02-02T07:36:47;97211.47;;;8.89;45.98
9439;BME280;5176;42.622;25.386;2023-02-02T07:39:14;97211.47;;;9.05;45.10
9439;BME280;5176;42.622;25.386;2023-02-02T07:41:41;97207.56;;;9.12;44.69
9439;BME280;5176;42.622;25.386;2023-02-02T07:44:11;97203.09;;;9.28;44.82
9439;BME280;5176;42.622;25.386;2023-02-02T07:46:40;97211.06;;;9.55;44.79
9439;BME280;5176;42.622;25.386;2023-02-02T07:49:11;97202.59;;;9.66;43.18
9439;BME280;5176;42.622;25.386;2023-02-02T07:51:38;97205.88;;;9.84;44.10
9439;BME280;5176;42.622;25.386;2023-02-02T07:54:07;97204.34;;;10.08;43.28
9439;BME280;5176;42.622;25.386;2023-02-02T07:56:36;97192.56;;;10.30;42.71
9439;BME280;5176;42.622;25.386;2023-02-02T07:59:04;97201.75;;;10.50;42.00
9439;BME280;5176;42.622;25.386;2023-02-02T08:01:31;97199.09;;;10.37;41.36
9439;BME280;5176;42.622;25.386;2023-02-02T08:03:59;97208.88;;;10.48;41.66
9439;BME280;5176;42.622;25.386;2023-02-02T08:06:29;97209.03;;;10.59;41.49
9439;BME280;5176;42.622;25.386;2023-02-02T08:08:57;97198.28;;;10.76;42.09
9439;BME280;5176;42.622;25.386;2023-02-02T08:11:27;97187.53;;;10.94;42.19
9439;BME280;5176;42.622;25.386;2023-02-02T08:13:56;97194.28;;;10.98;40.07
9439;BME280;5176;42.622;25.386;2023-02-02T08:16:24;97176.50;;;10.88;40.81
9439;BME280;5176;42.622;25.386;2023-02-02T08:18:52;97194.53;;;11.20;40.25
9439;BME280;5176;42.622;25.386;2023-02-02T08:21:20;97194.53;;;11.33;39.98
9439;BME280;5176;42.622;25.386;2023-02-02T08:23:48;97181.41;;;11.33;39.75
9439;BME280;5176;42.622;25.386;2023-02-02T08:26:16;97201.78;;;11.55;39.29
9439;BME280;5176;42.622;25.386;2023-02-02T08:28:47;97204.84;;;11.74;39.92
9439;BME280;5176;42.622;25.386;2023-02-02T08:31:17;97200.75;;;11.83;40.17
9439;BME280;5176;42.622;25.386;2023-02-02T08:33:44;97198.44;;;11.65;38.63
9439;BME280;5176;42.622;25.386;2023-02-02T08:36:12;97207.03;;;11.80;38.63
9439;BME280;5176;42.622;25.386;2023-02-02T08:38:40;97220.50;;;11.88;37.76
9439;BME280;5176;42.622;25.386;2023-02-02T08:41:09;97219.25;;;11.81;37.04
9439;BME280;5176;42.622;25.386;2023-02-02T08:43:37;97209.91;;;11.77;38.07
9439;BME280;5176;42.622;25.386;2023-02-02T08:46:06;97214.72;;;11.83;37.25
9439;BME280;5176;42.622;25.386;2023-02-02T08:48:34;97212.44;;;11.91;37.32
9439;BME280;5176;42.622;25.386;2023-02-02T08:51:02;97201.81;;;11.93;37.95
9439;BME280;5176;42.622;25.386;2023-02-02T08:53:30;97214.19;;;12.04;37.14
9439;BME280;5176;42.622;25.386;2023-02-02T08:55:58;97207.53;;;12.23;37.04
9439;BME280;5176;42.622;25.386;2023-02-02T08:58:27;97197.47;;;12.17;37.21
9439;BME280;5176;42.622;25.386;2023-02-02T09:00:54;97215.88;;;12.17;37.18
9439;BME280;5176;42.622;25.386;2023-02-02T09:03:30;97200.50;;;12.24;36.14
9439;BME280;5176;42.622;25.386;2023-02-02T09:06:03;97196.00;;;12.13;35.15
9439;BME280;5176;42.622;25.386;2023-02-02T09:08:30;97189.41;;;11.95;36.62
9439;BME280;5176;42.622;25.386;2023-02-02T09:11:02;97191.97;;;12.20;35.86
9439;BME280;5176;42.622;25.386;2023-02-02T09:13:29;97184.34;;;12.17;34.53
9439;BME280;5176;42.622;25.386;2023-02-02T09:15:58;97172.13;;;12.16;36.50
9439;BME280;5176;42.622;25.386;2023-02-02T09:18:26;97173.00;;;12.41;36.89
9439;BME280;5176;42.622;25.386;2023-02-02T09:20:58;97156.94;;;12.33;35.33
9439;BME280;5176;42.622;25.386;2023-02-02T09:23:28;97165.03;;;12.30;35.23
9439;BME280;5176;42.622;25.386;2023-02-02T09:25:55;97156.72;;;12.36;35.32
9439;BME280;5176;42.622;25.386;2023-02-02T09:28:22;97155.22;;;12.44;35.05
9439;BME280;5176;42.622;25.386;2023-02-02T09:30:49;97152.00;;;12.76;35.79
9439;BME280;5176;42.622;25.386;2023-02-02T09:33:17;97147.31;;;13.03;34.99
9439;BME280;5176;42.622;25.386;2023-02-02T09:35:44;97147.81;;;13.08;35.27
9439;BME280;5176;42.622;25.386;2023-02-02T09:38:13;97144.06;;;13.24;34.52
9439;BME280;5176;42.622;25.386;2023-02-02T09:40:40;97143.25;;;13.34;34.10
9439;BME280;5176;42.622;25.386;2023-02-02T09:43:19;97135.59;;;13.43;33.85
9439;BME280;5176;42.622;25.386;2023-02-02T09:45:55;97121.00;;;13.50;33.24
9439;BME280;5176;42.622;25.386;2023-02-02T09:48:31;97118.00;;;13.54;32.77
9439;BME280;5176;42.622;25.386;2023-02-02T09:51:05;97117.19;;;13.65;33.19
9439;BME280;5176;42.622;25.386;2023-02-02T09:53:42;97120.06;;;13.73;33.73
9439;BME280;5176;42.622;25.386;2023-02-02T09:56:21;97115.63;;;13.74;33.79
9439;BME280;5176;42.622;25.386;2023-02-02T09:58:52;97117.88;;;13.56;32.47
9439;BME280;5176;42.622;25.386;2023-02-02T10:01:22;97115.97;;;13.24;33.02
9439;BME280;5176;42.622;25.386;2023-02-02T10:03:57;97098.78;;;13.07;33.89
9439;BME280;5176;42.622;25.386;2023-02-02T10:06:32;97103.78;;;13.10;33.87
9439;BME280;5176;42.622;25.386;2023-02-02T10:09:12;97103.09;;;13.08;33.51
9439;BME280;5176;42.622;25.386;2023-02-02T10:11:48;97092.19;;;13.02;33.95
9439;BME280;5176;42.622;25.386;2023-02-02T10:14:20;97079.16;;;13.00;35.06
9439;BME280;5176;42.622;25.386;2023-02-02T10:16:52;97069.16;;;13.28;35.29
9439;BME280;5176;42.622;25.386;2023-02-02T10:19:23;97054.47;;;13.25;33.19
9439;BME280;5176;42.622;25.386;2023-02-02T10:21:59;97060.44;;;12.81;32.78
9439;BME280;5176;42.622;25.386;2023-02-02T10:24:31;97065.38;;;12.86;32.94
9439;BME280;5176;42.622;25.386;2023-02-02T10:27:02;97060.78;;;12.65;32.87
9439;BME280;5176;42.622;25.386;2023-02-02T10:29:36;97068.41;;;12.33;33.38
9439;BME280;5176;42.622;25.386;2023-02-02T10:32:14;97056.22;;;12.32;34.55
9439;BME280;5176;42.622;25.386;2023-02-02T10:35:01;97057.97;;;12.20;33.93
9439;BME280;5176;42.622;25.386;2023-02-02T10:37:32;97067.41;;;12.23;34.35
9439;BME280;5176;42.622;25.386;2023-02-02T10:40:16;97062.56;;;12.06;33.85
9439;BME280;5176;42.622;25.386;2023-02-02T10:42:59;97061.53;;;12.19;35.78
9439;BME280;5176;42.622;25.386;2023-02-02T10:45:49;97066.69;;;12.21;34.51
9439;BME280;5176;42.622;25.386;2023-02-02T10:48:19;97061.28;;;12.11;33.58
9439;BME280;5176;42.622;25.386;2023-02-02T10:50:51;97064.38;;;12.16;35.30
9439;BME280;5176;42.622;25.386;2023-02-02T10:53:20;97061.66;;;12.18;34.61
9439;BME280;5176;42.622;25.386;2023-02-02T10:55:55;97050.19;;;11.95;34.49
9439;BME280;5176;42.622;25.386;2023-02-02T10:58:28;97042.41;;;11.93;35.46
9439;BME280;5176;42.622;25.386;2023-02-02T11:00:58;97045.75;;;11.95;34.79
9439;BME280;5176;42.622;25.386;2023-02-02T11:03:30;97054.81;;;12.15;33.39
9439;BME280;5176;42.622;25.386;2023-02-02T11:05:59;97030.78;;;12.33;33.25
9439;BME280;5176;42.622;25.386;2023-02-02T11:08:46;97034.38;;;12.43;34.46
9439;BME280;5176;42.622;25.386;2023-02-02T11:11:20;97019.97;;;12.48;34.68
9439;BME280;5176;42.622;25.386;2023-02-02T11:13:52;97018.22;;;12.60;34.92
9439;BME280;5176;42.622;25.386;2023-02-02T11:16:23;97016.28;;;12.62;32.90
9439;BME280;5176;42.622;25.386;2023-02-02T11:18:51;97018.63;;;12.78;32.75
9439;BME280;5176;42.622;25.386;2023-02-02T11:21:21;97019.16;;;12.70;33.95
9439;BME280;5176;42.622;25.386;2023-02-02T11:23:56;97005.72;;;12.86;33.47
9439;BME280;5176;42.622;25.386;2023-02-02T11:26:40;96998.78;;;13.07;32.69
9439;BME280;5176;42.622;25.386;2023-02-02T11:29:13;97004.66;;;13.11;32.17
9439;BME280;5176;42.622;25.386;2023-02-02T11:31:40;97002.25;;;13.08;31.85
9439;BME280;5176;42.622;25.386;2023-02-02T11:34:19;96993.97;;;12.90;32.19
9439;BME280;5176;42.622;25.386;2023-02-02T11:37:01;96990.84;;;12.74;32.89
9439;BME280;5176;42.622;25.386;2023-02-02T11:39:29;96992.41;;;12.65;32.58
9439;BME280;5176;42.622;25.386;2023-02-02T11:42:03;96986.19;;;12.66;33.51
9439;BME280;5176;42.622;25.386;2023-02-02T11:44:32;96976.84;;;12.62;31.74
9439;BME280;5176;42.622;25.386;2023-02-02T11:47:02;96971.63;;;12.73;33.43
9439;BME280;5176;42.622;25.386;2023-02-02T11:49:34;96961.59;;;12.78;33.97
9439;BME280;5176;42.622;25.386;2023-02-02T11:52:04;96959.28;;;12.74;33.58
9439;BME280;5176;42.622;25.386;2023-02-02T11:54:33;96965.16;;;12.66;32.11
9439;BME280;5176;42.622;25.386;2023-02-02T11:57:06;96957.97;;;12.68;32.16
9439;BME280;5176;42.622;25.386;2023-02-02T11:59:36;96959.91;;;12.89;32.24
9439;BME280;5176;42.622;25.386;2023-02-02T12:02:20;96947.59;;;13.23;32.69
9439;BME280;5176;42.622;25.386;2023-02-02T12:04:49;96953.19;;;13.52;32.64
9439;BME280;5176;42.622;25.386;2023-02-02T12:07:18;96950.72;;;13.82;33.04
9439;BME280;5176;42.622;25.386;2023-02-02T12:09:45;96942.19;;;13.90;31.58
9439;BME280;5176;42.622;25.386;2023-02-02T12:12:25;96943.94;;;14.01;31.64
9439;BME280;5176;42.622;25.386;2023-02-02T12:14:59;96948.75;;;13.96;30.08
9439;BME280;5176;42.622;25.386;2023-02-02T12:17:35;96936.38;;;13.75;30.07
9439;BME280;5176;42.622;25.386;2023-02-02T12:20:28;96939.84;;;13.76;30.95
9439;BME280;5176;42.622;25.386;2023-02-02T12:23:27;96937.25;;;13.65;31.11
9439;BME280;5176;42.622;25.386;2023-02-02T12:26:24;96937.97;;;13.55;31.45
9439;BME280;5176;42.622;25.386;2023-02-02T12:32:02;96926.00;;;13.62;31.55
9439;BME280;5176;42.622;25.386;2023-02-02T12:34:39;96920.53;;;13.43;32.09
9439;BME280;5176;42.622;25.386;2023-02-02T12:37:17;96917.66;;;13.46;32.70
9439;BME280;5176;42.622;25.386;2023-02-02T12:40:01;96921.34;;;13.55;32.52
9439;BME280;5176;42.622;25.386;2023-02-02T12:45:47;96923.16;;;13.43;32.17
9439;BME280;5176;42.622;25.386;2023-02-02T12:48:25;96928.34;;;13.22;32.87
9439;BME280;5176;42.622;25.386;2023-02-02T12:51:05;96927.03;;;13.28;32.82
9439;BME280;5176;42.622;25.386;2023-02-02T12:53:55;96919.34;;;13.14;32.63
9439;BME280;5176;42.622;25.386;2023-02-02T12:56:31;96914.94;;;13.03;32.93
9439;BME280;5176;42.622;25.386;2023-02-02T12:59:07;96923.66;;;13.03;33.24
9439;BME280;5176;42.622;25.386;2023-02-02T13:01:53;96916.28;;;12.97;33.65
9439;BME280;5176;42.622;25.386;2023-02-02T13:04:43;96915.31;;;12.87;35.17
9439;BME280;5176;42.622;25.386;2023-02-02T13:07:25;96924.13;;;12.64;34.64
9439;BME280;5176;42.622;25.386;2023-02-02T13:10:10;96923.06;;;12.55;35.03
9439;BME280;5176;42.622;25.386;2023-02-02T13:12:42;96923.53;;;12.49;35.77
9439;BME280;5176;42.622;25.386;2023-02-02T13:15:14;96923.97;;;12.43;35.74
9439;BME280;5176;42.622;25.386;2023-02-02T13:17:47;96926.34;;;12.23;36.27
9439;BME280;5176;42.622;25.386;2023-02-02T13:20:36;96928.00;;;12.13;36.06
9439;BME280;5176;42.622;25.386;2023-02-02T13:23:10;96906.66;;;11.94;36.64
9439;BME280;5176;42.622;25.386;2023-02-02T13:25:43;96922.84;;;11.40;39.55
9439;BME280;5176;42.622;25.386;2023-02-02T13:28:19;96926.63;;;11.12;40.33
9439;BME280;5176;42.622;25.386;2023-02-02T13:30:51;96934.25;;;11.15;40.03
9439;BME280;5176;42.622;25.386;2023-02-02T13:33:24;96922.13;;;10.88;41.34
9439;BME280;5176;42.622;25.386;2023-02-02T13:35:54;96918.50;;;10.78;43.11
9439;BME280;5176;42.622;25.386;2023-02-02T13:38:25;96921.75;;;10.56;43.50
9439;BME280;5176;42.622;25.386;2023-02-02T13:40:54;96925.53;;;10.65;44.34
9439;BME280;5176;42.622;25.386;2023-02-02T13:43:29;96932.34;;;10.68;44.72
9439;BME280;5176;42.622;25.386;2023-02-02T13:46:07;96924.28;;;10.71;45.29